Time;durP1;ratioP1;P1;durP2;ratioP2;P2;SDS_P1;SDS_P2;PMS_P1;PMS_P2;Temp;Humidity;BMP_temperature;BMP_pressure;BME280_temperature;BME280_humidity;BME280_pressure;Samples;Min_cycle;Max_cycle;Signal;HPM_P1;HPM_P2
2022/01/24 00:00:05;;;;;;;20.88;11.05;;;;;;;-3.02;65.54;100848.69;5028878;28;20046;-57
2022/01/24 00:02:36;;;;;;;23.45;10.95;;;;;;;-3.04;65.26;100843.59;5017252;28;20053;-56
2022/01/24 00:05:02;;;;;;;24.20;10.75;;;;;;;-3.13;66.31;100852.06;5034464;28;20042;-54
2022/01/24 00:07:29;;;;;;;25.27;11.02;;;;;;;-3.40;66.46;100846.31;5034201;28;20069;-58
2022/01/24 00:09:58;;;;;;;20.08;10.32;;;;;;;-3.39;67.21;100848.78;5033779;28;20061;-57
2022/01/24 00:12:33;;;;;;;26.63;10.95;;;;;;;-3.50;66.88;100857.34;5033620;28;20419;-57
2022/01/24 00:18:08;;;;;;;22.52;10.63;;;;;;;-3.46;67.66;100858.78;5032486;28;20087;-56
2022/01/24 00:28:47;;;;;;;22.10;10.55;;;;;;;-3.47;65.82;100862.31;5033406;28;20439;-55
2022/01/24 00:31:12;;;;;;;18.90;9.32;;;;;;;-3.61;65.81;100859.06;5032369;28;20136;-57
2022/01/24 00:33:38;;;;;;;22.35;10.18;;;;;;;-3.56;66.30;100852.63;5032387;28;20068;-56
2022/01/24 00:36:04;;;;;;;22.45;9.75;;;;;;;-3.47;66.74;100848.50;5033397;28;20057;-58
2022/01/24 00:38:32;;;;;;;24.15;10.02;;;;;;;-3.40;67.27;100856.69;5032136;28;20116;-56
2022/01/24 00:40:58;;;;;;;20.83;9.88;;;;;;;-3.31;66.07;100845.66;5034003;28;20048;-57
2022/01/24 00:43:47;;;;;;;25.52;11.52;;;;;;;-3.45;65.98;100851.81;5033301;28;20075;-56
2022/01/24 00:46:30;;;;;;;26.73;10.70;;;;;;;-3.42;66.64;100842.06;5033983;28;20064;-58
2022/01/24 00:57:03;;;;;;;20.58;9.13;;;;;;;-3.31;66.09;100838.69;5013718;28;20037;-57
2022/01/24 00:59:29;;;;;;;19.85;10.20;;;;;;;-3.29;66.45;100841.19;5031940;28;20095;-58
2022/01/24 01:01:55;;;;;;;22.98;9.43;;;;;;;-3.16;66.19;100841.09;5033134;28;20033;-57
2022/01/24 01:04:27;;;;;;;25.67;9.55;;;;;;;-3.19;64.93;100844.75;5031946;28;20049;-58
2022/01/24 01:06:54;;;;;;;22.02;9.38;;;;;;;-3.13;65.54;100846.88;5032927;28;20136;-58
2022/01/24 01:20:35;;;;;;;22.90;10.35;;;;;;;-3.26;65.73;100833.19;5032646;28;20046;-57
2022/01/24 01:23:01;;;;;;;20.75;10.07;;;;;;;-3.28;65.84;100830.69;5032934;28;20128;-57
2022/01/24 01:25:26;;;;;;;23.63;10.63;;;;;;;-3.15;66.13;100838.38;5032455;28;20122;-58
2022/01/24 01:27:53;;;;;;;23.30;10.70;;;;;;;-3.14;65.60;100829.69;5032614;28;20387;-57
2022/01/24 01:30:24;;;;;;;25.83;10.55;;;;;;;-3.16;65.59;100834.13;5013176;28;20168;-57
2022/01/24 01:33:05;;;;;;;23.38;10.57;;;;;;;-3.38;65.76;100829.72;5011527;28;20041;-57
2022/01/24 01:56:35;;;;;;;24.40;10.25;;;;;;;-3.65;66.79;100850.66;5031825;28;20463;-56
2022/01/24 01:59:01;;;;;;;20.85;10.25;;;;;;;-3.77;66.38;100846.34;5032020;28;20084;-58
2022/01/24 02:01:27;;;;;;;24.42;11.15;;;;;;;-3.68;67.87;100856.91;5032004;28;20049;-59
2022/01/24 02:03:54;;;;;;;24.50;11.05;;;;;;;-3.70;66.30;100856.19;5031795;28;20041;-57
2022/01/24 02:06:22;;;;;;;22.05;10.50;;;;;;;-3.53;66.72;100861.91;5032060;28;20054;-58
2022/01/24 02:08:47;;;;;;;26.77;11.02;;;;;;;-3.49;66.45;100861.59;5031388;28;20054;-56
2022/01/24 02:11:15;;;;;;;24.15;10.68;;;;;;;-3.45;67.10;100852.66;5032106;28;20046;-58
2022/01/24 02:13:41;;;;;;;21.80;10.98;;;;;;;-3.47;66.87;100856.28;5031733;28;20038;-55
2022/01/24 02:23:46;;;;;;;23.20;9.80;;;;;;;-3.56;66.12;100860.41;5031381;28;20041;-57
2022/01/24 02:26:18;;;;;;;23.85;9.90;;;;;;;-3.63;66.58;100863.53;5032041;28;20060;-59
2022/01/24 02:28:54;;;;;;;22.80;10.90;;;;;;;-3.55;66.05;100869.00;5031317;28;20045;-57
2022/01/24 02:33:47;;;;;;;21.70;10.43;;;;;;;-3.53;66.69;100865.34;5031721;28;20064;-57
2022/01/24 02:36:21;;;;;;;17.52;9.57;;;;;;;-3.54;66.04;100858.50;5030890;28;20136;-57
2022/01/24 02:49:36;;;;;;;18.33;9.02;;;;;;;-3.62;65.53;100880.72;5031347;28;20050;-55
2022/01/24 02:52:11;;;;;;;21.70;9.85;;;;;;;-3.56;66.37;100865.56;5029723;28;20042;-57
2022/01/24 02:54:38;;;;;;;17.50;8.93;;;;;;;-3.51;66.30;100862.63;5031389;28;20052;-58
2022/01/24 02:57:05;;;;;;;21.63;10.20;;;;;;;-3.45;65.91;100851.81;5030079;28;20041;-58
2022/01/24 02:59:32;;;;;;;23.10;10.93;;;;;;;-3.38;65.77;100860.81;5030143;28;20053;-57
2022/01/24 03:01:57;;;;;;;25.70;10.48;;;;;;;-3.48;65.06;100855.47;5031519;28;20033;-57
2022/01/24 03:04:23;;;;;;;22.40;9.68;;;;;;;-3.60;66.85;100856.34;5031321;28;20055;-56
2022/01/24 03:06:49;;;;;;;24.73;10.60;;;;;;;-3.57;65.92;100857.91;5030419;28;20084;-59
2022/01/24 03:09:15;;;;;;;23.77;10.18;;;;;;;-3.70;66.22;100852.78;5029967;28;20495;-58
2022/01/24 03:14:18;;;;;;;19.45;9.32;;;;;;;-3.60;67.09;100853.75;5031344;28;20046;-58
2022/01/24 03:16:44;;;;;;;20.85;9.38;;;;;;;-3.50;65.99;100836.63;5030583;28;20622;-57
2022/01/24 03:19:10;;;;;;;27.85;11.20;;;;;;;-3.44;65.75;100843.94;5030028;28;20124;-58
2022/01/24 03:21:35;;;;;;;21.75;10.57;;;;;;;-3.44;65.49;100848.31;5029504;28;20180;-58
2022/01/24 03:24:01;;;;;;;20.15;10.18;;;;;;;-3.42;65.88;100844.66;5030783;28;20042;-58
2022/01/24 03:26:27;;;;;;;25.60;9.70;;;;;;;-3.51;65.08;100847.91;5030688;28;20049;-59
2022/01/24 03:28:53;;;;;;;22.90;10.15;;;;;;;-3.48;65.82;100845.09;5030824;28;20042;-59
2022/01/24 03:31:18;;;;;;;21.83;9.80;;;;;;;-3.43;65.81;100845.59;5029767;28;20045;-60
2022/01/24 03:33:44;;;;;;;22.30;10.45;;;;;;;-3.45;65.38;100844.88;5030931;28;20037;-58
2022/01/24 03:36:10;;;;;;;20.27;10.90;;;;;;;-3.51;64.95;100842.72;5034645;28;20053;-57
2022/01/24 03:38:36;;;;;;;27.10;11.30;;;;;;;-3.58;65.39;100838.94;5033338;28;20037;-56
2022/01/24 03:41:02;;;;;;;27.77;12.15;;;;;;;-3.62;66.55;100841.84;5033591;28;20048;-58
2022/01/24 03:43:28;;;;;;;24.70;10.82;;;;;;;-3.65;66.19;100832.50;5033282;28;20083;-58
2022/01/24 03:49:07;;;;;;;28.45;12.77;;;;;;;-3.53;67.32;100826.47;5033234;28;20072;-59
2022/01/24 03:51:33;;;;;;;22.95;11.48;;;;;;;-3.44;66.11;100827.56;5034253;28;20034;-58
2022/01/24 03:54:00;;;;;;;21.30;12.38;;;;;;;-3.37;66.65;100817.56;5034596;28;20056;-57
2022/01/24 03:56:25;;;;;;;25.13;13.18;;;;;;;-3.34;66.55;100806.97;5034490;28;20445;-57
2022/01/24 03:58:51;;;;;;;28.02;13.48;;;;;;;-3.42;66.61;100813.53;5034236;28;20052;-58
2022/01/24 04:01:17;;;;;;;26.77;11.80;;;;;;;-3.37;66.01;100802.00;5033371;28;20073;-59
2022/01/24 04:03:43;;;;;;;25.17;12.40;;;;;;;-3.32;65.22;100800.75;5034082;28;20037;-57
2022/01/24 04:06:09;;;;;;;28.95;13.10;;;;;;;-3.38;66.45;100810.72;5034075;28;20045;-58
2022/01/24 04:08:34;;;;;;;24.48;12.02;;;;;;;-3.36;65.95;100806.25;5034344;28;20045;-58
2022/01/24 04:11:01;;;;;;;31.35;13.68;;;;;;;-3.35;66.63;100805.31;5033754;28;20418;-57
2022/01/24 04:23:50;;;;;;;27.67;12.27;;;;;;;-3.28;66.05;100817.72;5032478;28;20042;-58
2022/01/24 04:26:16;;;;;;;27.63;13.73;;;;;;;-3.31;66.08;100817.94;5033603;28;20144;-58
2022/01/24 04:28:42;;;;;;;26.05;12.25;;;;;;;-3.33;66.40;100826.75;5033875;28;20116;-57
2022/01/24 04:31:08;;;;;;;29.27;13.45;;;;;;;-3.31;66.64;100824.91;5033410;28;20041;-58
2022/01/24 04:33:33;;;;;;;34.30;14.38;;;;;;;-3.27;66.14;100823.72;5032747;28;20042;-59
2022/01/24 04:35:59;;;;;;;28.83;13.15;;;;;;;-3.27;66.43;100818.53;5029910;28;20471;-59
2022/01/24 04:38:26;;;;;;;26.88;13.50;;;;;;;-3.26;66.63;100826.22;5032098;28;20045;-57
2022/01/24 04:40:57;;;;;;;28.85;13.25;;;;;;;-3.26;65.94;100828.00;5033341;28;20110;-57
2022/01/24 04:44:18;;;;;;;27.52;12.50;;;;;;;-3.39;65.36;100841.00;5033270;28;20041;-58
2022/01/24 04:56:33;;;;;;;25.67;12.23;;;;;;;-3.59;66.77;100837.25;5033077;28;20565;-58
2022/01/24 04:58:59;;;;;;;29.40;13.00;;;;;;;-3.68;67.20;100838.78;5031755;28;20049;-57
2022/01/24 05:01:24;;;;;;;25.33;12.15;;;;;;;-3.65;67.02;100842.88;5033043;28;20445;-59
2022/01/24 05:03:50;;;;;;;28.20;12.68;;;;;;;-3.72;66.72;100841.69;5031942;28;20044;-57
2022/01/24 05:06:16;;;;;;;26.13;12.00;;;;;;;-3.72;67.09;100854.63;5022182;28;20057;-63
2022/01/24 05:08:42;;;;;;;26.70;12.13;;;;;;;-3.71;66.23;100851.09;5031202;28;20511;-60
2022/01/24 05:11:12;;;;;;;28.10;12.02;;;;;;;-3.72;66.69;100855.47;5032750;28;20415;-60
2022/01/24 05:24:22;;;;;;;27.98;12.40;;;;;;;-3.74;66.50;100856.50;5011476;28;20077;-61
2022/01/24 05:26:48;;;;;;;24.40;11.32;;;;;;;-3.72;66.46;100863.22;5011434;28;20104;-60
2022/01/24 05:29:14;;;;;;;24.65;12.48;;;;;;;-3.81;66.40;100857.88;5024645;28;20414;-58
2022/01/24 05:31:40;;;;;;;28.40;12.02;;;;;;;-3.80;66.22;100857.75;5032213;28;20049;-58
2022/01/24 05:34:05;;;;;;;26.85;11.45;;;;;;;-3.95;66.72;100857.06;5032388;28;20045;-58
2022/01/24 05:36:31;;;;;;;26.60;11.57;;;;;;;-3.98;67.60;100865.06;5031682;28;20175;-59
2022/01/24 05:38:57;;;;;;;28.27;11.32;;;;;;;-3.86;67.07;100862.56;5031176;28;20065;-58
2022/01/24 05:41:23;;;;;;;28.98;12.68;;;;;;;-3.80;67.09;100872.47;5032088;28;20037;-59
2022/01/24 05:43:49;;;;;;;27.17;11.95;;;;;;;-3.84;66.85;100869.28;5030672;28;20045;-57
2022/01/24 05:46:15;;;;;;;29.75;11.85;;;;;;;-3.91;66.41;100863.72;5032379;28;20053;-60
2022/01/24 05:48:40;;;;;;;28.42;13.02;;;;;;;-3.86;66.43;100871.16;5031272;28;20045;-59
2022/01/24 05:51:06;;;;;;;27.55;11.02;;;;;;;-3.86;66.51;100863.38;5013635;28;20176;-59
2022/01/24 05:53:32;;;;;;;29.92;12.48;;;;;;;-3.79;66.64;100868.97;5031608;28;20420;-59
2022/01/24 05:55:59;;;;;;;28.90;12.00;;;;;;;-3.81;66.31;100863.88;5031986;28;20126;-58
2022/01/24 05:58:24;;;;;;;29.90;12.50;;;;;;;-3.78;66.18;100862.84;5030833;28;20128;-59
2022/01/24 06:00:50;;;;;;;27.30;11.60;;;;;;;-3.85;66.02;100872.81;5013123;28;20060;-61
2022/01/24 06:03:16;;;;;;;26.77;11.68;;;;;;;-3.83;66.64;100864.94;5031394;28;20052;-58
2022/01/24 06:05:42;;;;;;;28.25;12.48;;;;;;;-3.88;66.22;100870.44;5031365;28;20057;-59
2022/01/24 06:08:08;;;;;;;30.52;14.00;;;;;;;-3.89;66.40;100866.19;5029323;28;20037;-58
2022/01/24 06:10:36;;;;;;;27.98;13.63;;;;;;;-3.83;66.42;100868.34;5031890;28;20076;-58
2022/01/24 06:13:02;;;;;;;27.38;12.98;;;;;;;-3.80;66.39;100867.31;5013650;28;20483;-58
2022/01/24 06:15:28;;;;;;;29.55;12.65;;;;;;;-3.80;65.54;100868.13;5031367;28;20163;-58
2022/01/24 06:17:54;;;;;;;31.40;12.65;;;;;;;-3.83;66.65;100872.69;5029910;28;20065;-60
2022/01/24 06:20:19;;;;;;;29.40;13.45;;;;;;;-3.80;66.66;100886.25;5004233;28;20507;-59
2022/01/24 06:22:45;;;;;;;24.70;12.23;;;;;;;-3.81;66.92;100884.63;5011300;28;20037;-59
2022/01/24 06:25:13;;;;;;;35.38;15.52;;;;;;;-3.78;66.58;100886.16;5019862;28;20048;-58
2022/01/24 06:27:39;;;;;;;31.05;13.43;;;;;;;-3.95;66.26;100877.81;5029902;28;20307;-56
2022/01/24 06:30:05;;;;;;;35.38;14.25;;;;;;;-3.99;66.97;100880.72;5030775;28;20179;-58
2022/01/24 06:32:31;;;;;;;29.77;12.98;;;;;;;-4.10;66.84;100881.47;5030845;28;20443;-58
2022/01/24 06:34:57;;;;;;;29.90;13.60;;;;;;;-4.23;67.21;100888.44;5023554;28;20119;-58
2022/01/24 06:37:23;;;;;;;30.40;13.60;;;;;;;-4.26;67.37;100892.06;5027913;28;20187;-59
2022/01/24 06:39:49;;;;;;;23.63;11.95;;;;;;;-4.33;66.99;100890.81;5027628;28;20045;-56
2022/01/24 06:42:22;;;;;;;30.80;12.48;;;;;;;-4.39;67.16;100899.00;5027118;28;20052;-57
2022/01/24 06:44:52;;;;;;;32.38;13.63;;;;;;;-4.40;67.11;100890.41;5026207;28;20081;-59
2022/01/24 06:47:19;;;;;;;29.75;12.30;;;;;;;-4.35;67.77;100892.69;5024538;28;20041;-56
2022/01/24 06:49:45;;;;;;;29.92;13.63;;;;;;;-4.46;68.22;100884.81;5022758;28;20122;-58
2022/01/24 06:52:13;;;;;;;32.60;13.07;;;;;;;-4.36;67.98;100891.00;4990555;28;20033;-59
2022/01/24 06:54:41;;;;;;;26.45;11.82;;;;;;;-4.28;66.77;100885.31;5024613;28;20464;-58
2022/01/24 06:57:11;;;;;;;36.45;13.63;;;;;;;-4.35;67.59;100877.97;5024041;28;20041;-60
2022/01/24 06:59:38;;;;;;;35.97;14.70;;;;;;;-4.35;67.64;100865.03;5026287;28;20050;-59
2022/01/24 07:02:05;;;;;;;28.83;12.88;;;;;;;-4.16;67.08;100872.34;5009047;28;20087;-60
2022/01/24 07:04:30;;;;;;;33.90;13.30;;;;;;;-4.15;66.97;100873.19;5026265;28;20196;-60
2022/01/24 07:06:56;;;;;;;26.75;12.38;;;;;;;-4.20;66.35;100876.09;5025527;28;20057;-61
2022/01/24 07:09:22;;;;;;;27.83;12.30;;;;;;;-4.25;66.84;100883.34;5026963;28;20100;-58
2022/01/24 07:11:50;;;;;;;31.95;13.43;;;;;;;-4.22;67.27;100879.72;5028879;28;20549;-59
2022/01/24 07:14:15;;;;;;;31.58;13.30;;;;;;;-4.10;66.90;100886.66;5028093;28;20446;-59
2022/01/24 07:19:23;;;;;;;29.05;12.52;;;;;;;-3.84;66.15;100876.25;5009413;28;20049;-60
2022/01/24 07:21:49;;;;;;;27.25;12.75;;;;;;;-3.99;65.45;100888.50;5037031;28;20044;-56
2022/01/24 07:24:15;;;;;;;28.52;13.00;;;;;;;-4.03;66.28;100887.03;5029721;28;20444;-58
2022/01/24 07:26:41;;;;;;;36.15;14.07;;;;;;;-3.95;67.31;100880.38;5031993;28;20049;-57
2022/01/24 07:29:07;;;;;;;31.17;13.90;;;;;;;-3.86;65.74;100883.28;5031645;28;20068;-59
2022/01/24 07:31:32;;;;;;;44.15;16.83;;;;;;;-3.91;66.19;100879.25;5031775;28;20060;-58
2022/01/24 07:33:58;;;;;;;33.35;13.82;;;;;;;-4.01;65.93;100874.81;5030238;28;20513;-57
2022/01/24 07:36:25;;;;;;;38.05;14.73;;;;;;;-3.95;65.99;100882.16;5030719;28;20053;-59
2022/01/24 07:38:51;;;;;;;33.78;13.57;;;;;;;-4.02;66.10;100883.53;5013942;28;20037;-57
2022/01/24 07:41:23;;;;;;;36.20;14.85;;;;;;;-3.90;67.06;100874.91;5012377;28;20142;-59
2022/01/24 07:43:50;;;;;;;36.03;15.68;;;;;;;-3.73;65.52;100860.75;5031877;28;20464;-58
2022/01/24 07:46:16;;;;;;;35.80;15.10;;;;;;;-3.69;65.63;100869.97;5030690;28;20419;-58
2022/01/24 07:48:41;;;;;;;36.47;14.23;;;;;;;-3.68;65.68;100863.84;5030625;28;20056;-59
2022/01/24 07:51:07;;;;;;;32.00;13.95;;;;;;;-3.70;64.54;100866.56;5013438;28;20513;-57
2022/01/24 07:53:33;;;;;;;37.83;15.02;;;;;;;-3.73;65.53;100876.31;5029370;28;20044;-58
2022/01/24 07:55:58;;;;;;;38.83;15.50;;;;;;;-3.70;65.03;100870.91;5023067;28;20049;-58
2022/01/24 07:58:25;;;;;;;35.20;14.05;;;;;;;-3.69;65.04;100865.59;5011307;28;20057;-57
2022/01/24 08:00:51;;;;;;;38.15;16.35;;;;;;;-3.69;65.61;100865.59;5029581;28;20049;-58
2022/01/24 08:03:17;;;;;;;36.33;16.00;;;;;;;-3.74;64.50;100859.91;5028482;28;20133;-58
2022/01/24 08:05:44;;;;;;;43.75;19.02;;;;;;;-3.60;64.18;100864.13;5012847;28;20136;-58
2022/01/24 08:08:11;;;;;;;41.42;17.13;;;;;;;-3.58;64.94;100866.63;5032473;28;20120;-57
2022/01/24 08:10:36;;;;;;;49.08;18.65;;;;;;;-3.58;64.66;100864.84;5029978;28;20050;-57
2022/01/24 08:13:02;;;;;;;39.20;14.75;;;;;;;-3.60;64.50;100861.53;5031091;28;20037;-57
2022/01/24 08:15:28;;;;;;;66.88;24.88;;;;;;;-3.66;64.48;100862.78;5029866;28;20049;-59
2022/01/24 08:17:54;;;;;;;44.60;19.15;;;;;;;-3.69;64.83;100859.59;5031919;28;20045;-59
2022/01/24 08:20:21;;;;;;;43.35;18.23;;;;;;;-3.57;64.80;100865.66;5029266;28;20063;-60
2022/01/24 08:22:48;;;;;;;32.67;14.60;;;;;;;-3.57;64.21;100865.66;5012021;28;20132;-59
2022/01/24 08:25:14;;;;;;;52.75;20.23;;;;;;;-3.48;64.66;100863.25;5029970;28;20068;-59
2022/01/24 08:27:40;;;;;;;35.38;14.52;;;;;;;-3.40;63.66;100874.84;5030032;28;20048;-60
2022/01/24 08:30:11;;;;;;;31.67;14.55;;;;;;;-3.40;64.63;100864.47;5011158;28;20061;-59
2022/01/24 08:32:37;;;;;;;32.03;14.80;;;;;;;-3.43;63.29;100863.75;5028790;28;20052;-58
2022/01/24 08:35:03;;;;;;;33.90;13.10;;;;;;;-3.42;64.46;100855.00;5012046;28;20662;-59
2022/01/24 08:37:30;;;;;;;27.17;11.68;;;;;;;-3.59;64.58;100862.34;5029909;28;20034;-59
2022/01/24 08:39:58;;;;;;;25.65;11.65;;;;;;;-3.60;64.64;100851.16;5027035;28;20049;-59
2022/01/24 08:42:53;;;;;;;27.48;12.20;;;;;;;-3.52;64.25;100858.41;4996375;28;20441;-60
2022/01/24 08:47:57;;;;;;;33.95;13.80;;;;;;;-3.57;63.89;100856.13;5027290;28;20584;-60
2022/01/24 08:50:26;;;;;;;52.03;19.55;;;;;;;-3.49;63.57;100851.22;5028490;28;20073;-61
2022/01/24 08:52:59;;;;;;;32.75;13.38;;;;;;;-3.69;65.06;100852.66;5029523;28;20124;-60
2022/01/24 08:55:31;;;;;;;35.53;15.05;;;;;;;-3.52;64.47;100858.41;5029714;28;20045;-60
2022/01/24 08:57:58;;;;;;;50.42;19.27;;;;;;;-3.29;64.27;100857.56;5029135;28;20120;-60
2022/01/24 09:00:24;;;;;;;33.75;14.60;;;;;;;-3.25;64.17;100840.00;5027826;28;20045;-58
2022/01/24 09:02:50;;;;;;;23.25;12.48;;;;;;;-3.17;63.39;100850.66;5029491;28;20042;-60
2022/01/24 09:05:22;;;;;;;28.00;13.73;;;;;;;-3.17;62.98;100839.44;5027444;28;20041;-60
2022/01/24 09:07:48;;;;;;;28.83;12.57;;;;;;;-3.06;63.43;100848.09;5028626;28;20144;-61
2022/01/24 09:10:14;;;;;;;32.33;12.60;;;;;;;-3.34;63.20;100832.91;5027706;28;20049;-60
2022/01/24 09:12:41;;;;;;;27.90;12.50;;;;;;;-3.27;63.35;100834.09;5028527;28;20045;-61
2022/01/24 09:15:07;;;;;;;27.13;11.82;;;;;;;-3.16;62.90;100831.53;5028595;28;20069;-59
2022/01/24 09:17:33;;;;;;;32.30;11.93;;;;;;;-3.09;62.98;100829.31;5024769;28;20037;-60
2022/01/24 09:19:59;;;;;;;25.58;11.02;;;;;;;-3.06;63.09;100829.09;5026109;28;20044;-60
2022/01/24 09:22:26;;;;;;;23.48;11.50;;;;;;;-2.97;63.29;100837.03;5029362;28;20037;-61
2022/01/24 09:24:52;;;;;;;31.55;11.80;;;;;;;-2.91;62.52;100832.31;5029965;28;20136;-62
2022/01/24 09:27:18;;;;;;;29.73;11.52;;;;;;;-2.85;61.39;100824.91;5026258;28;20037;-60
2022/01/24 09:29:44;;;;;;;28.02;12.68;;;;;;;-2.76;61.83;100833.78;5029675;28;20095;-61
2022/01/24 09:32:10;;;;;;;23.27;11.35;;;;;;;-2.83;61.42;100825.59;5029822;28;20052;-60
2022/01/24 09:34:35;;;;;;;26.25;11.55;;;;;;;-2.91;61.77;100819.31;5029597;28;20042;-60
2022/01/24 09:37:01;;;;;;;25.85;11.98;;;;;;;-2.96;61.67;100822.28;5029442;28;20045;-59
2022/01/24 09:39:27;;;;;;;24.23;10.85;;;;;;;-3.04;62.33;100815.06;5027525;28;20056;-60
2022/01/24 09:41:53;;;;;;;24.67;11.10;;;;;;;-2.99;62.49;100817.31;5026313;28;20033;-59
2022/01/24 09:44:20;;;;;;;25.05;11.25;;;;;;;-3.00;62.54;100815.66;5027777;28;20056;-60
2022/01/24 09:46:46;;;;;;;22.30;10.77;;;;;;;-3.00;61.39;100818.25;5027757;28;20588;-59
2022/01/24 09:49:12;;;;;;;27.15;11.45;;;;;;;-2.94;61.87;100814.38;5027814;28;20060;-60
2022/01/24 09:51:38;;;;;;;21.73;10.60;;;;;;;-2.93;61.90;100808.25;5027985;28;20060;-60
2022/01/24 09:54:06;;;;;;;20.92;10.85;;;;;;;-2.81;61.61;100805.56;5027992;28;20061;-60
2022/01/24 09:56:32;;;;;;;28.83;11.15;;;;;;;-2.75;61.35;100804.28;5028528;28;20134;-59
2022/01/24 09:58:58;;;;;;;23.77;11.80;;;;;;;-2.66;61.18;100813.13;5027971;28;20046;-60
2022/01/24 10:01:24;;;;;;;23.73;11.30;;;;;;;-2.90;61.69;100813.22;5029102;28;20064;-59
2022/01/24 10:04:07;;;;;;;24.67;10.85;;;;;;;-2.82;61.31;100811.69;5029898;28;20038;-60
2022/01/24 10:07:11;;;;;;;24.38;11.70;;;;;;;-2.80;61.47;100801.19;5028416;28;20049;-59
2022/01/24 10:09:45;;;;;;;23.40;10.73;;;;;;;-2.73;61.12;100793.78;5025602;28;20060;-60
2022/01/24 10:12:18;;;;;;;24.67;10.80;;;;;;;-2.84;60.92;100790.22;5028579;28;20107;-59
2022/01/24 10:17:31;;;;;;;21.63;10.63;;;;;;;-2.88;61.08;100777.56;5022560;28;20046;-58
2022/01/24 10:20:26;;;;;;;21.52;10.02;;;;;;;-2.92;60.96;100769.22;5009952;28;20100;-57
2022/01/24 10:23:16;;;;;;;46.78;18.73;;;;;;;-3.15;61.61;100775.31;4974055;28;20049;-58
2022/01/24 10:25:59;;;;;;;20.90;9.82;;;;;;;-3.21;61.65;100763.63;5006303;28;20579;-59
2022/01/24 10:28:28;;;;;;;20.58;10.00;;;;;;;-3.20;61.77;100773.88;5012352;28;20625;-57
2022/01/24 10:31:16;;;;;;;23.45;11.00;;;;;;;-3.13;61.94;100771.66;5018033;28;20492;-59
2022/01/24 10:33:51;;;;;;;20.20;10.70;;;;;;;-3.03;61.15;100770.03;5007258;28;20091;-57
2022/01/24 10:36:45;;;;;;;21.95;10.48;;;;;;;-2.97;60.74;100761.78;5013697;28;20057;-60
2022/01/24 10:39:18;;;;;;;25.23;10.82;;;;;;;-2.92;61.14;100764.03;5010870;28;20096;-60
2022/01/24 10:42:10;;;;;;;23.42;11.27;;;;;;;-2.90;61.07;100764.75;5040195;28;20436;-60
2022/01/24 10:44:36;;;;;;;25.85;10.82;;;;;;;-2.94;61.40;100760.75;5014369;28;20503;-58
2022/01/24 10:47:14;;;;;;;24.88;10.90;;;;;;;-2.98;60.23;100760.13;5024719;28;20048;-58
2022/01/24 10:49:41;;;;;;;21.98;10.20;;;;;;;-3.05;61.55;100751.16;5027806;28;20042;-60
2022/01/24 10:52:18;;;;;;;24.55;10.82;;;;;;;-3.10;60.82;100753.28;5010522;28;20045;-59
2022/01/24 10:54:45;;;;;;;22.25;9.65;;;;;;;-3.08;61.63;100758.34;5025172;28;20095;-59
2022/01/24 10:57:20;;;;;;;28.05;11.35;;;;;;;-3.11;61.45;100754.22;5026118;28;20049;-60
2022/01/24 10:59:46;;;;;;;27.25;11.73;;;;;;;-3.09;61.89;100754.09;5028253;28;20045;-59
2022/01/24 11:02:15;;;;;;;23.67;10.55;;;;;;;-3.08;61.86;100755.75;5025229;28;20041;-62
2022/01/24 11:04:40;;;;;;;28.55;11.60;;;;;;;-3.04;61.47;100752.81;5026912;28;20079;-61
2022/01/24 11:07:06;;;;;;;26.02;10.73;;;;;;;-3.03;61.51;100749.28;5027809;28;20069;-62
2022/01/24 11:09:34;;;;;;;24.25;10.57;;;;;;;-3.04;61.08;100747.63;5028307;28;20052;-62
2022/01/24 11:12:02;;;;;;;25.20;11.50;;;;;;;-3.01;61.55;100734.41;5028721;28;20045;-61
2022/01/24 11:14:29;;;;;;;24.48;10.60;;;;;;;-2.98;60.39;100738.53;5026394;28;20045;-62
2022/01/24 11:16:57;;;;;;;27.60;10.77;;;;;;;-2.95;60.84;100742.69;5009881;28;20091;-62
2022/01/24 11:19:29;;;;;;;23.90;11.13;;;;;;;-3.17;61.43;100733.94;5026756;28;20088;-66
2022/01/24 11:21:58;;;;;;;22.02;10.50;;;;;;;-3.16;61.07;100729.56;5028704;28;20045;-61
2022/01/24 11:27:13;;;;;;;25.87;11.00;;;;;;;-3.23;60.81;100729.22;5050751;28;20499;-62
2022/01/24 11:29:39;;;;;;;25.90;11.70;;;;;;;-3.22;61.15;100730.84;5036215;28;20053;-63
2022/01/24 11:32:31;;;;;;;26.88;10.70;;;;;;;-3.25;61.28;100729.31;5026633;28;20048;-60
2022/01/24 11:34:58;;;;;;;19.67;10.10;;;;;;;-3.25;61.84;100720.72;5026731;28;20062;-62
2022/01/24 11:37:40;;;;;;;23.20;11.52;;;;;;;-3.23;60.91;100711.06;5026597;28;20037;-59
2022/01/24 11:40:18;;;;;;;30.13;12.65;;;;;;;-3.30;61.57;100702.06;5027199;28;20410;-63
2022/01/24 11:42:47;;;;;;;31.35;13.57;;;;;;;-3.26;61.69;100708.69;5029158;28;20033;-62
2022/01/24 11:45:18;;;;;;;31.48;12.75;;;;;;;-3.23;61.57;100714.47;5009774;28;20056;-63
2022/01/24 11:47:47;;;;;;;23.25;11.60;;;;;;;-3.21;61.45;100707.41;5028023;28;20068;-62
2022/01/24 11:50:31;;;;;;;29.30;11.68;;;;;;;-3.17;61.92;100704.59;5029564;28;20068;-61
2022/01/24 11:52:57;;;;;;;27.42;13.00;;;;;;;-3.20;61.29;100708.22;5025927;28;20048;-62
2022/01/24 11:55:34;;;;;;;29.33;13.20;;;;;;;-3.30;61.98;100705.50;5029902;28;20098;-62
2022/01/24 11:58:07;;;;;;;28.38;13.00;;;;;;;-3.29;63.30;100709.75;5030913;28;20107;-61
2022/01/24 12:00:44;;;;;;;31.23;13.95;;;;;;;-3.35;62.57;100704.19;5030918;28;20053;-61
2022/01/24 12:03:23;;;;;;;28.42;13.02;;;;;;;-3.39;62.75;100719.16;5031820;28;20087;-62
2022/01/24 12:05:53;;;;;;;29.92;12.77;;;;;;;-3.47;63.56;100705.91;5032950;28;20391;-62
2022/01/24 12:08:41;;;;;;;33.10;13.45;;;;;;;-3.57;62.94;100704.97;5031112;28;20049;-61
2022/01/24 12:11:23;;;;;;;27.10;11.68;;;;;;;-3.47;63.30;100693.81;5031040;28;20045;-61
2022/01/24 12:13:56;;;;;;;27.17;12.30;;;;;;;-3.43;62.77;100692.63;5030204;28;20041;-61
2022/01/24 12:16:36;;;;;;;34.05;12.65;;;;;;;-3.35;64.30;100699.00;5030632;28;20045;-60
2022/01/24 12:19:04;;;;;;;22.38;11.52;;;;;;;-3.35;62.40;100699.84;5009313;28;20041;-60
2022/01/24 12:21:31;;;;;;;27.83;12.13;;;;;;;-3.58;62.94;100698.16;5011204;28;20057;-61
2022/01/24 12:24:00;;;;;;;29.33;12.02;;;;;;;-3.63;63.03;100697.66;5020636;28;20051;-61
2022/01/24 12:26:33;;;;;;;28.73;11.50;;;;;;;-3.71;62.84;100699.03;5031661;28;20049;-62
2022/01/24 12:29:05;;;;;;;24.90;11.77;;;;;;;-3.72;61.96;100709.53;5032265;28;20045;-60
2022/01/24 12:31:35;;;;;;;28.58;11.70;;;;;;;-3.80;62.62;100704.06;5025726;28;20066;-61
2022/01/24 12:34:16;;;;;;;26.02;11.95;;;;;;;-3.74;62.14;100695.84;5028811;28;20041;-61
2022/01/24 12:36:52;;;;;;;26.27;11.32;;;;;;;-3.89;62.35;100675.31;5029326;28;20534;-61
2022/01/24 12:39:24;;;;;;;37.50;10.45;;;;;;;-4.19;62.81;100693.06;5011809;28;20042;-61
2022/01/24 12:42:00;;;;;;;28.85;12.82;;;;;;;-4.16;63.69;100691.09;5010843;28;20045;-61
2022/01/24 12:47:10;;;;;;;26.90;12.32;;;;;;;-4.06;63.05;100690.41;5024869;28;20041;-62
2022/01/24 12:49:37;;;;;;;25.85;12.20;;;;;;;-4.14;63.41;100693.59;5029988;28;20037;-62
2022/01/24 12:52:11;;;;;;;26.08;11.52;;;;;;;-4.15;63.80;100687.59;5029689;28;20037;-62
2022/01/24 12:54:42;;;;;;;28.15;12.55;;;;;;;-4.33;63.87;100683.69;5012414;28;20392;-61
2022/01/24 12:57:11;;;;;;;31.92;12.80;;;;;;;-4.25;64.14;100681.41;5029007;28;20056;-58
2022/01/24 12:59:38;;;;;;;22.02;11.80;;;;;;;-4.15;64.64;100678.97;5028970;28;20554;-60
2022/01/24 13:02:05;;;;;;;25.73;11.98;;;;;;;-4.02;63.18;100671.16;5028023;28;20122;-59
2022/01/24 13:04:38;;;;;;;25.30;10.77;;;;;;;-3.99;63.57;100676.09;5029911;28;20110;-60
2022/01/24 13:07:05;;;;;;;22.10;11.15;;;;;;;-3.99;62.45;100674.34;5028799;28;20502;-61
2022/01/24 13:09:34;;;;;;;23.98;11.07;;;;;;;-4.01;62.76;100678.78;5030827;28;20045;-60
2022/01/24 13:12:04;;;;;;;19.95;9.95;;;;;;;-4.07;62.09;100665.47;4996084;28;20048;-59
2022/01/24 13:14:44;;;;;;;22.45;9.98;;;;;;;-4.16;62.17;100677.31;5012925;28;20065;-60
2022/01/24 13:22:56;;;;;;;21.10;10.32;;;;;;;-4.22;62.94;100675.19;5029645;28;20049;-60
2022/01/24 13:25:27;;;;;;;19.15;9.65;;;;;;;-4.27;63.34;100675.50;5028154;28;20518;-61